18 de agosto de 2022

Hora Código Tiempo Temp. Visibilidad Cielo nuboso Viento METAR/SPECI
20:50
V
22 °C 10 km+ - 310° 310° 11 kt METAR EDDS 181850Z AUTO 31011KT 290V350 CAVOK 22/16 Q1011 TEMPO SHRA BKN030CB
20:20
V
23 °C 10 km+ - 310° 310° 11 kt METAR EDDS 181820Z AUTO 31011KT CAVOK 23/16 Q1011 TEMPO SHRA BKN030CB
19:50
V
23 °C 10 km+ - 300° 300° 13 kt METAR EDDS 181750Z AUTO 30013KT 9999 FEW046 23/16 Q1011 NOSIG
19:20
V
24 °C 10 km+ 4.900 ft 300° 300° 14 kt METAR EDDS 181720Z AUTO 30014KT 9999 BKN049 24/15 Q1011 NOSIG
18:50
V
25 °C 10 km+ 4.600 ft 310° 310° 10 kt METAR EDDS 181650Z AUTO 31010KT 9999 BKN046 25/15 Q1011 NOSIG
18:20
V
25 °C 10 km+ - 350° 350° 5 kt METAR EDDS 181620Z AUTO 35005KT 310V020 9999 FEW045 25/14 Q1011 NOSIG
17:50
V
25 °C 10 km+ - 020° 020° 5 kt METAR EDDS 181550Z AUTO 02005KT 280V070 9999 FEW046 25/14 Q1011 NOSIG
17:20
V
25 °C 10 km+ - 010° 010° 6 kt METAR EDDS 181520Z AUTO 01006KT 300V050 9999 FEW044 25/14 Q1011 NOSIG
16:50
V
26 °C 10 km+ - 350° 350° 6 kt METAR EDDS 181450Z AUTO 35006KT 320V040 9999 FEW042 26/15 Q1011 NOSIG
16:20
V
26 °C 10 km+ - 020° 020° 6 kt METAR EDDS 181420Z AUTO 02006KT 350V100 9999 FEW040 26/15 Q1011
15:50
V
26 °C 10 km+ - 360° 360° 6 kt METAR EDDS 181350Z AUTO 36006KT 290V070 9999 FEW037 26/15 Q1011 NOSIG
15:20
V
25 °C 10 km+ - 350° 350° 7 kt METAR EDDS 181320Z AUTO 35007KT 310V030 9999 FEW035 25/15 Q1011 NOSIG
14:50
V
25 °C 10 km+ - 350° 350° 8 kt METAR EDDS 181250Z AUTO 35008KT 300V060 9999 FEW033 25/15 Q1012 NOSIG
14:20
V
24 °C 10 km+ - 350° 350° 9 kt METAR EDDS 181220Z AUTO 35009KT 310V040 9999 SCT031 24/15 Q1012 NOSIG
13:50
V
24 °C 10 km+ - 340° 340° 8 kt METAR EDDS 181150Z AUTO 34008KT 270V080 9999 SCT028 SCT034 24/15 Q1012 NOSIG
13:20
V
24 °C 10 km+ - 030° 030° 7 kt METAR EDDS 181120Z AUTO 03007KT 320V070 9999 SCT025 SCT029 24/16 Q1012 NOSIG
12:50
V
23 °C 10 km+ - 030° 030° 6 kt METAR EDDS 181050Z AUTO 03006KT 340V140 9999 SCT023 23/16 Q1012 NOSIG
12:20
M
23 °C 10 km+ 1.900 ft Var Var 2 kt METAR EDDS 181020Z AUTO VRB02KT 9999 BKN019 23/17 Q1013 NOSIG
11:50
V
22 °C 10 km+ - 100° 100° 5 kt METAR EDDS 180950Z AUTO 10005KT 060V190 9999 SCT017 22/17 Q1013 NOSIG
11:20
V
21 °C 10 km+ - 020° 020° 4 kt METAR EDDS 180920Z AUTO 02004KT 340V110 9999 FEW014 21/16 Q1013 NOSIG
10:50
V
20 °C 10 km+ - Var Var 2 kt METAR EDDS 180850Z AUTO VRB02KT 9999 -SHRA FEW045 FEW///TCU 20/16 Q1014 NOSIG
10:20
V
19 °C 10 km+ - Var Var 2 kt METAR EDDS 180820Z AUTO VRB02KT 9999 VCSH FEW///TCU 19/16 Q1013 NOSIG
09:50
V
19 °C 10 km+ - Var Var 2 kt METAR EDDS 180750Z AUTO VRB02KT CAVOK 19/15 Q1014 NOSIG
09:20
V
19 °C 10 km+ - Var Var 2 kt METAR EDDS 180720Z AUTO VRB02KT CAVOK 19/16 Q1014
08:50
V
19 °C 10 km+ - Var Var 2 kt METAR EDDS 180650Z AUTO VRB02KT CAVOK 19/16 Q1013 NOSIG
08:20
V
19 °C 10 km+ - 130° 130° 4 kt METAR EDDS 180620Z AUTO 13004KT 090V170 CAVOK 19/16 Q1013 NOSIG
07:50
V
19 °C 10 km+ - Var 000° 0 kt METAR EDDS 180550Z AUTO 00000KT CAVOK 19/15 Q1013 NOSIG
07:20
V
18 °C 10 km+ - Var Var 2 kt METAR EDDS 180520Z AUTO VRB02KT CAVOK 18/16 Q1013 NOSIG
06:50
V
17 °C 10 km+ - Var Var 2 kt METAR EDDS 180450Z AUTO VRB02KT CAVOK 17/15 Q1013 NOSIG
06:20
V
17 °C 10 km+ - Var Var 2 kt METAR EDDS 180420Z AUTO VRB02KT CAVOK 17/15 Q1013 NOSIG
05:50
V
17 °C 10 km+ - 260° 260° 4 kt METAR EDDS 180350Z AUTO 26004KT CAVOK 17/15 Q1013
05:20
V
17 °C 10 km+ - 260° 260° 5 kt METAR EDDS 180320Z AUTO 26005KT CAVOK 17/15 Q1013
04:50
V
17 °C 10 km+ - 250° 250° 4 kt METAR EDDS 180250Z AUTO 25004KT CAVOK 17/15 Q1013
04:20
V
17 °C 10 km+ - Var Var 2 kt METAR EDDS 180220Z AUTO VRB02KT CAVOK 17/15 Q1013
03:50
V
17 °C 10 km+ - 160° 160° 1 kt METAR EDDS 180150Z AUTO 16001KT CAVOK 17/15 Q1013
03:20
V
17 °C 10 km+ - Var Var 2 kt METAR EDDS 180120Z AUTO VRB02KT 9999 FEW043 17/16 Q1014
02:50
V
18 °C 10 km+ - Var Var 1 kt METAR EDDS 180050Z AUTO VRB01KT 9999 -RA NSC 18/15 Q1014
02:20
V
18 °C 10 km+ - 190° 190° 3 kt METAR EDDS 180020Z AUTO 19003KT 150V260 CAVOK 18/15 Q1014
01:50
V
18 °C 10 km+ - 170° 170° 4 kt METAR EDDS 172350Z AUTO 17004KT 120V230 9999 -RA NSC 18/16 Q1015
01:20
V
18 °C 10 km+ - 190° 190° 4 kt METAR EDDS 172320Z AUTO 19004KT 080V240 9999 -RADZ NSC 18/16 Q1015
00:50
V
19 °C 10 km+ - 200° 200° 6 kt METAR EDDS 172250Z AUTO 20006KT 100V260 9999 -RA NSC 19/15 Q1015
00:20
V
20 °C 10 km+ - 190° 190° 10 kt METAR EDDS 172220Z AUTO 19010KT 150V230 9999 -RA FEW047 20/15 Q1014

17 de agosto de 2022

Hora Código Tiempo Temp. Visibilidad Cielo nuboso Viento METAR/SPECI
23:50
V
22 °C 10 km+ - 180° 180° 3 kt METAR EDDS 172150Z AUTO 18003KT 9999 -RA NSC 22/14 Q1013
23:20
V
22 °C 10 km+ - 280° 280° 4 kt METAR EDDS 172120Z AUTO 28004KT 230V310 CAVOK 22/14 Q1012
22:50
V
22 °C 10 km+ - 250° 250° 3 kt METAR EDDS 172050Z AUTO 25003KT CAVOK 22/14 Q1012
22:20
V
21 °C 10 km+ - 250° 250° 3 kt METAR EDDS 172020Z AUTO 25003KT CAVOK 21/14 Q1012
21:50
V
23 °C 10 km+ - 330° 330° 4 kt METAR EDDS 171950Z AUTO 33004KT 280V350 CAVOK 23/14 Q1012 NOSIG
21:20
V
23 °C 10 km+ - 240° 240° 3 kt METAR EDDS 171920Z AUTO 24003KT 210V280 CAVOK 23/13 Q1012 NOSIG
20:50
V
24 °C 10 km+ - 350° 350° 6 kt METAR EDDS 171850Z AUTO 35006KT 310V020 CAVOK 24/13 Q1011 NOSIG
20:20
V
25 °C 10 km+ - 360° 360° 3 kt METAR EDDS 171820Z AUTO 36003KT 320V050 CAVOK 25/12 Q1011 TEMPO SHRA
19:50
V
26 °C 10 km+ - 330° 330° 5 kt METAR EDDS 171750Z AUTO 33005KT CAVOK 26/12 Q1011 TEMPO SHRA
19:20
V
26 °C 10 km+ - 320° 320° 5 kt METAR EDDS 171720Z AUTO 32005KT CAVOK 26/12 Q1011 NOSIG
18:50
V
27 °C 10 km+ - 360° 360° 3 kt METAR EDDS 171650Z AUTO 36003KT 310V050 CAVOK 27/12 Q1011 NOSIG
18:20
V
27 °C 10 km+ - Var Var 1 kt METAR EDDS 171620Z AUTO VRB01KT CAVOK 27/12 Q1011 NOSIG
17:50
V
28 °C 10 km+ - 100° 100° 3 kt METAR EDDS 171550Z AUTO 10003KT 040V170 CAVOK 28/12 Q1012 NOSIG
17:20
V
28 °C 10 km+ - Var Var 2 kt METAR EDDS 171520Z AUTO VRB02KT CAVOK 28/11 Q1012 NOSIG
16:50
V
28 °C 10 km+ - 030° 030° 5 kt METAR EDDS 171450Z AUTO 03005KT 330V100 CAVOK 28/11 Q1012 NOSIG
16:20
V
27 °C 10 km+ - 070° 070° 3 kt METAR EDDS 171420Z AUTO 07003KT 350V160 CAVOK 27/11 Q1012 NOSIG
15:50
V
27 °C 10 km+ - Var Var 3 kt METAR EDDS 171350Z AUTO VRB03KT CAVOK 27/12 Q1012 NOSIG
15:20
V
27 °C 10 km+ - 070° 070° 5 kt METAR EDDS 171320Z AUTO 07005KT 360V170 CAVOK 27/12 Q1012 NOSIG
14:50
V
26 °C 10 km+ - Var Var 3 kt METAR EDDS 171250Z AUTO VRB03KT CAVOK 26/12 Q1013 NOSIG
14:20
V
24 °C 10 km+ - 310° 310° 4 kt METAR EDDS 171220Z AUTO 31004KT 270V010 CAVOK 24/13 Q1013 NOSIG
13:50
V
23 °C 10 km+ - 320° 320° 5 kt METAR EDDS 171150Z AUTO 32005KT 280V010 9999 -SHRA FEW///TCU 23/13 Q1014 TEMPO SHRA BKN030CB
13:20
V
24 °C 10 km+ - 340° 340° 7 kt METAR EDDS 171120Z AUTO 34007KT 290V060 9999 -SHRA FEW///TCU 24/12 Q1014 TEMPO SHRA BKN030CB
12:50
V
25 °C 10 km+ - 360° 360° 4 kt METAR EDDS 171050Z AUTO 36004KT 310V090 9999 VCSH FEW///CB 25/13 Q1014 TEMPO SHRA BKN030CB
12:20
V
24 °C 10 km+ - 290° 290° 5 kt METAR EDDS 171020Z AUTO 29005KT 240V340 9999 VCSH FEW///CB 24/13 Q1013 RESHRA TEMPO SHRA BKN030CB
11:50
V
24 °C 10 km+ - Var Var 1 kt METAR EDDS 170950Z AUTO VRB01KT 9999 SHRA FEW///TCU 24/14 Q1013 NOSIG
11:20
V
23 °C 10 km+ - Var Var 1 kt METAR EDDS 170920Z AUTO VRB01KT 9999 -SHRA FEW032 FEW///TCU 23/14 Q1013 RESHRA NOSIG
10:50
V
23 °C 10 km+ - Var Var 2 kt METAR EDDS 170850Z AUTO VRB02KT 9999 -SHRA FEW///TCU 23/14 Q1013 NOSIG
10:20
V
23 °C 10 km+ - Var Var 2 kt METAR EDDS 170820Z AUTO VRB02KT CAVOK 23/14 Q1012 NOSIG
09:50
V
23 °C 10 km+ - 080° 080° 3 kt METAR EDDS 170750Z AUTO 08003KT 050V120 CAVOK 23/13 Q1012 NOSIG
09:20
V
23 °C 10 km+ - Var Var 2 kt METAR EDDS 170720Z AUTO VRB02KT CAVOK 23/13 Q1012 NOSIG
08:50
V
22 °C 10 km+ - Var Var 1 kt METAR EDDS 170650Z AUTO VRB01KT CAVOK 22/14 Q1012 NOSIG
08:20
V
19 °C 10 km+ - Var Var 1 kt METAR EDDS 170620Z AUTO VRB01KT CAVOK 19/13 Q1012 NOSIG
07:50
V
18 °C 10 km+ - Var Var 1 kt METAR EDDS 170550Z AUTO VRB01KT CAVOK 18/13 Q1012 NOSIG
07:20
V
16 °C 10 km+ - 060° 060° 2 kt METAR EDDS 170520Z AUTO 06002KT CAVOK 16/12 Q1012 NOSIG
06:50
V
16 °C 10 km+ - Var Var 2 kt METAR EDDS 170450Z AUTO VRB02KT CAVOK 16/12 Q1011 NOSIG
06:20
V
17 °C 10 km+ - 240° 240° 3 kt METAR EDDS 170420Z AUTO 24003KT 210V270 CAVOK 17/12 Q1011 NOSIG
05:50
V
16 °C 10 km+ - 240° 240° 4 kt METAR EDDS 170350Z AUTO 24004KT CAVOK 16/12 Q1011
05:20
V
16 °C 10 km+ - Var Var 2 kt METAR EDDS 170320Z AUTO VRB02KT CAVOK 16/12 Q1011
04:50
V
17 °C 10 km+ - 290° 290° 4 kt METAR EDDS 170250Z AUTO 29004KT CAVOK 17/12 Q1011
04:20
V
17 °C 10 km+ - 300° 300° 4 kt METAR EDDS 170220Z AUTO 30004KT CAVOK 17/12 Q1011
03:50
V
17 °C 10 km+ - 300° 300° 4 kt METAR EDDS 170150Z AUTO 30004KT CAVOK 17/12 Q1011
03:20
V
17 °C 10 km+ - 290° 290° 2 kt METAR EDDS 170120Z AUTO 29002KT CAVOK 17/12 Q1011
02:50
V
17 °C 10 km+ - 330° 330° 2 kt METAR EDDS 170050Z AUTO 33002KT CAVOK 17/12 Q1011
02:20
V
17 °C 10 km+ - Var Var 1 kt METAR EDDS 170020Z AUTO VRB01KT CAVOK 17/13 Q1011
01:50
V
19 °C 10 km+ - 040° 040° 3 kt METAR EDDS 162350Z AUTO 04003KT CAVOK 19/13 Q1011
01:20
V
18 °C 10 km+ - Var Var 2 kt METAR EDDS 162320Z AUTO VRB02KT CAVOK 18/13 Q1011
00:50
V
19 °C 10 km+ - Var Var 2 kt METAR EDDS 162250Z AUTO VRB02KT CAVOK 19/12 Q1011
00:20
V
19 °C 10 km+ - 340° 340° 2 kt METAR EDDS 162220Z AUTO 34002KT CAVOK 19/12 Q1011

16 de agosto de 2022

Hora Código Tiempo Temp. Visibilidad Cielo nuboso Viento METAR/SPECI
23:50
V
20 °C 10 km+ - Var Var 2 kt METAR EDDS 162150Z AUTO VRB02KT CAVOK 20/12 Q1011
23:20
V
20 °C 10 km+ - Var Var 2 kt METAR EDDS 162120Z AUTO VRB02KT CAVOK 20/12 Q1011
22:50
V
21 °C 10 km+ - Var Var 1 kt METAR EDDS 162050Z AUTO VRB01KT CAVOK 21/12 Q1011
22:20
V
21 °C 10 km+ - 040° 040° 3 kt METAR EDDS 162020Z AUTO 04003KT 320V100 CAVOK 21/12 Q1011
21:50
V
22 °C 10 km+ - Var Var 1 kt METAR EDDS 161950Z AUTO VRB01KT CAVOK 22/12 Q1011 NOSIG
21:20
V
24 °C 10 km+ - 360° 360° 3 kt METAR EDDS 161920Z AUTO 36003KT CAVOK 24/12 Q1011 NOSIG
20:50
V
24 °C 10 km+ - 010° 010° 5 kt METAR EDDS 161850Z AUTO 01005KT CAVOK 24/12 Q1010 NOSIG
20:20
V
25 °C 10 km+ - 020° 020° 5 kt METAR EDDS 161820Z AUTO 02005KT CAVOK 25/12 Q1010 NOSIG
19:50
V
27 °C 10 km+ - 010° 010° 5 kt METAR EDDS 161750Z AUTO 01005KT 350V050 CAVOK 27/12 Q1010 NOSIG
19:20
V
28 °C 10 km+ - 020° 020° 5 kt METAR EDDS 161720Z AUTO 02005KT 340V050 CAVOK 28/12 Q1010 NOSIG
18:50
V
28 °C 10 km+ - 020° 020° 6 kt METAR EDDS 161650Z AUTO 02006KT 340V060 CAVOK 28/12 Q1010
18:20
V
27 °C 10 km+ - 010° 010° 5 kt METAR EDDS 161620Z AUTO 01005KT 330V060 CAVOK 27/12 Q1010 NOSIG
17:50
V
28 °C 10 km+ - 060° 060° 6 kt METAR EDDS 161550Z AUTO 06006KT 030V090 CAVOK 28/12 Q1010 NOSIG
17:20
V
28 °C 10 km+ - 080° 080° 3 kt METAR EDDS 161520Z AUTO 08003KT 020V160 CAVOK 28/12 Q1010 NOSIG
16:50
V
28 °C 10 km+ - 070° 070° 5 kt METAR EDDS 161450Z AUTO 07005KT 010V150 CAVOK 28/12 Q1010 NOSIG
Datos más antiguos

Nosotros y terceros seguimos tu comportamiento en Internet en nuestro sitio web con cookies. Si continúas, asumimos que estás de acuerdo con nuestra política de cookies. Más información